Time;durP1;ratioP1;P1;durP2;ratioP2;P2;SDS_P1;SDS_P2;PMS_P1;PMS_P2;Temp;Humidity;BMP_temperature;BMP_pressure;BME280_temperature;BME280_humidity;BME280_pressure;Samples;Min_cycle;Max_cycle;Signal;HPM_P1;HPM_P2
2022/02/25 00:00:59;;;;;;;16.52;6.70;;;10.90;53.00;;;;;;4991872;28;20080;-67
2022/02/25 00:03:25;;;;;;;13.45;7.05;;;10.90;53.00;;;;;;4974814;28;20473;-67
2022/02/25 00:05:51;;;;;;;15.07;6.65;;;10.90;53.00;;;;;;4973765;28;20038;-68
2022/02/25 00:08:17;;;;;;;13.32;6.75;;;10.90;53.00;;;;;;4974521;28;20038;-68
2022/02/25 00:10:43;;;;;;;15.57;6.78;;;10.90;53.10;;;;;;4991873;28;20030;-68
2022/02/25 00:13:08;;;;;;;17.65;6.57;;;10.90;53.20;;;;;;4974414;28;20373;-68
2022/02/25 00:15:34;;;;;;;16.33;8.10;;;10.90;53.30;;;;;;4992516;28;20039;-68
2022/02/25 00:18:00;;;;;;;22.77;9.88;;;10.80;53.60;;;;;;4991713;28;20175;-68
2022/02/25 00:20:27;;;;;;;16.42;9.52;;;10.70;54.10;;;;;;4992087;28;20432;-69
2022/02/25 00:22:53;;;;;;;19.63;9.32;;;10.60;54.30;;;;;;4974378;28;20034;-69
2022/02/25 00:25:41;;;;;;;17.95;8.95;;;10.60;54.40;;;;;;4992421;28;20546;-68
2022/02/25 00:28:07;;;;;;;17.70;8.20;;;10.60;54.70;;;;;;4991675;28;20030;-69
2022/02/25 00:30:32;;;;;;;17.48;8.30;;;10.60;54.60;;;;;;4991750;28;20030;-67
2022/02/25 00:33:17;;;;;;;13.30;7.60;;;10.50;54.60;;;;;;4973806;28;20081;-67
2022/02/25 00:35:43;;;;;;;15.27;8.15;;;10.40;54.80;;;;;;4992107;28;20490;-67
2022/02/25 00:38:09;;;;;;;15.35;8.45;;;10.40;54.70;;;;;;4991412;28;20110;-68
2022/02/25 00:40:34;;;;;;;21.10;8.45;;;10.30;54.80;;;;;;4991940;28;20110;-68
2022/02/25 00:43:00;;;;;;;16.42;8.02;;;10.30;54.80;;;;;;4974276;28;20077;-68
2022/02/25 00:45:26;;;;;;;13.32;7.60;;;10.30;54.70;;;;;;4974215;28;20038;-68
2022/02/25 00:47:52;;;;;;;13.60;6.68;;;10.30;55.40;;;;;;4974190;28;20036;-68
2022/02/25 00:50:17;;;;;;;14.00;7.18;;;10.30;54.70;;;;;;4990963;28;20043;-67
2022/02/25 00:52:43;;;;;;;13.00;6.40;;;10.30;54.50;;;;;;4992213;28;20110;-68
2022/02/25 00:55:09;;;;;;;14.05;6.88;;;10.30;54.40;;;;;;4991469;28;20042;-67
2022/02/25 00:57:42;;;;;;;12.90;6.72;;;10.30;54.40;;;;;;4992050;28;20034;-67
2022/02/25 01:00:08;;;;;;;14.75;7.78;;;10.30;54.50;;;;;;4974116;28;20034;-68
2022/02/25 01:02:34;;;;;;;12.13;7.13;;;10.30;54.70;;;;;;4974232;28;20062;-67
2022/02/25 01:05:00;;;;;;;15.18;7.53;;;10.20;54.80;;;;;;4991107;28;20069;-68
2022/02/25 01:07:26;;;;;;;14.77;7.10;;;10.20;54.90;;;;;;4974646;28;20389;-68
2022/02/25 01:09:52;;;;;;;15.85;7.15;;;10.20;55.00;;;;;;4973930;28;20493;-68
2022/02/25 01:12:18;;;;;;;12.90;7.00;;;10.20;55.10;;;;;;4974213;28;20037;-68
2022/02/25 01:14:43;;;;;;;16.45;7.28;;;10.20;55.20;;;;;;4991483;28;20101;-68
2022/02/25 01:17:09;;;;;;;18.10;7.03;;;10.20;55.50;;;;;;4976418;28;20121;-68
2022/02/25 01:19:35;;;;;;;19.88;7.85;;;10.10;55.70;;;;;;4977947;28;20034;-68
2022/02/25 01:22:01;;;;;;;19.25;7.30;;;10.00;56.00;;;;;;4995296;28;20050;-68
2022/02/25 01:24:27;;;;;;;14.73;7.63;;;9.90;56.20;;;;;;4995460;28;20160;-68
2022/02/25 01:26:53;;;;;;;18.45;7.57;;;9.70;56.40;;;;;;4994789;28;20081;-67
2022/02/25 01:29:19;;;;;;;12.68;7.15;;;9.60;56.80;;;;;;4995020;28;20038;-68
2022/02/25 01:31:46;;;;;;;14.55;7.72;;;9.50;57.10;;;;;;4994899;28;20079;-67
2022/02/25 01:34:12;;;;;;;16.88;6.82;;;9.40;57.10;;;;;;4994923;28;20033;-68
2022/02/25 01:36:38;;;;;;;14.75;8.23;;;9.40;57.10;;;;;;4994752;28;20033;-68
2022/02/25 01:39:04;;;;;;;16.90;7.65;;;9.50;57.20;;;;;;4994873;28;20030;-67
2022/02/25 01:41:32;;;;;;;14.15;7.32;;;9.40;57.10;;;;;;4994950;28;20035;-67
2022/02/25 01:44:14;;;;;;;13.32;6.65;;;9.50;57.20;;;;;;4994388;28;20189;-67
2022/02/25 01:46:44;;;;;;;16.13;7.00;;;9.50;57.20;;;;;;4977293;28;20049;-67
2022/02/25 01:49:10;;;;;;;12.07;6.93;;;9.50;57.00;;;;;;4994438;28;20066;-67
2022/02/25 01:51:35;;;;;;;13.30;7.05;;;9.70;57.00;;;;;;4994632;28;20112;-68
2022/02/25 01:54:01;;;;;;;10.93;6.80;;;9.70;57.00;;;;;;4977015;28;20470;-68
2022/02/25 01:56:27;;;;;;;12.85;6.97;;;9.70;56.80;;;;;;4994539;28;20599;-67
2022/02/25 01:58:55;;;;;;;14.15;6.50;;;9.80;56.70;;;;;;4994565;28;20397;-67
2022/02/25 02:01:21;;;;;;;16.27;6.93;;;9.80;56.70;;;;;;4994900;28;20121;-68
2022/02/25 02:03:48;;;;;;;13.35;6.45;;;9.80;56.50;;;;;;4994727;28;20527;-68
2022/02/25 02:06:14;;;;;;;12.20;6.13;;;9.80;56.40;;;;;;4994202;28;20026;-68
2022/02/25 02:08:39;;;;;;;13.02;6.57;;;9.90;56.40;;;;;;4994474;28;20428;-68
2022/02/25 02:11:05;;;;;;;13.40;6.18;;;9.90;56.40;;;;;;4976970;28;20044;-68
2022/02/25 02:13:31;;;;;;;12.52;6.03;;;9.90;56.30;;;;;;4994725;28;20114;-67
2022/02/25 02:15:56;;;;;;;15.63;6.45;;;9.90;56.20;;;;;;4993793;28;20530;-67
2022/02/25 02:18:22;;;;;;;10.50;5.93;;;10.00;56.20;;;;;;4994456;28;20041;-67
2022/02/25 02:20:48;;;;;;;12.68;5.95;;;10.00;56.10;;;;;;4994560;28;20038;-67
2022/02/25 02:23:13;;;;;;;10.15;4.95;;;10.00;56.10;;;;;;4993701;28;20026;-67
2022/02/25 02:25:39;;;;;;;11.77;5.75;;;10.00;56.10;;;;;;4994882;28;20029;-67
2022/02/25 02:28:20;;;;;;;11.43;5.75;;;10.10;56.10;;;;;;4974898;28;20513;-67
2022/02/25 02:30:47;;;;;;;11.90;5.65;;;10.10;56.10;;;;;;4976571;28;20023;-67
2022/02/25 02:33:13;;;;;;;12.35;5.57;;;10.10;56.10;;;;;;4975606;28;20058;-67
2022/02/25 02:35:39;;;;;;;12.63;5.40;;;10.10;56.70;;;;;;4976496;28;20034;-66
2022/02/25 02:38:04;;;;;;;10.20;4.68;;;10.10;56.10;;;;;;4993159;28;20027;-66
2022/02/25 02:40:30;;;;;;;9.18;4.80;;;10.10;56.00;;;;;;4976303;28;20113;-66
2022/02/25 02:42:56;;;;;;;6.90;3.30;;;10.10;56.10;;;;;;4993997;28;20093;-67
2022/02/25 02:45:22;;;;;;;9.88;3.85;;;10.20;56.10;;;;;;4976427;28;20041;-67
2022/02/25 02:47:48;;;;;;;11.77;4.43;;;10.30;56.00;;;;;;4993537;28;20046;-67
2022/02/25 02:50:14;;;;;;;12.18;4.30;;;10.30;55.80;;;;;;4975890;28;20023;-67
2022/02/25 02:52:40;;;;;;;10.48;4.47;;;10.40;55.70;;;;;;4993895;28;20030;-69
2022/02/25 02:55:08;;;;;;;7.78;3.78;;;10.50;55.70;;;;;;4992974;28;20018;-67
2022/02/25 02:57:33;;;;;;;10.80;3.22;;;10.50;55.40;;;;;;4993424;28;20113;-67
2022/02/25 02:59:59;;;;;;;11.75;4.68;;;10.60;55.40;;;;;;4975695;28;20121;-67
2022/02/25 03:02:25;;;;;;;7.90;3.75;;;10.60;55.20;;;;;;4993315;28;20039;-67
2022/02/25 03:04:51;;;;;;;6.53;2.97;;;10.60;55.10;;;;;;4976184;28;20038;-67
2022/02/25 03:07:16;;;;;;;9.95;3.13;;;10.60;55.00;;;;;;4993209;28;20034;-67
2022/02/25 03:09:42;;;;;;;12.07;3.50;;;10.70;55.00;;;;;;4993343;28;20115;-67
2022/02/25 03:12:08;;;;;;;9.50;3.10;;;10.70;55.00;;;;;;4992728;28;20059;-67
2022/02/25 03:14:36;;;;;;;9.98;3.10;;;10.70;55.00;;;;;;4992949;28;20022;-67
2022/02/25 03:17:02;;;;;;;8.52;3.05;;;10.80;55.00;;;;;;4992869;28;20037;-67
2022/02/25 03:19:28;;;;;;;7.35;2.63;;;10.80;55.10;;;;;;4993302;28;20034;-67
2022/02/25 03:21:54;;;;;;;9.55;2.95;;;10.80;55.00;;;;;;4993172;28;20023;-67
2022/02/25 03:24:19;;;;;;;8.73;2.88;;;10.90;54.90;;;;;;4992801;28;20022;-67
2022/02/25 03:26:45;;;;;;;8.73;2.75;;;10.90;54.80;;;;;;4975773;28;20038;-67
2022/02/25 03:29:11;;;;;;;8.45;3.22;;;10.90;54.60;;;;;;4992512;28;20242;-68
2022/02/25 03:31:36;;;;;;;7.03;2.70;;;11.00;54.60;;;;;;4993295;28;20100;-66
2022/02/25 03:34:02;;;;;;;10.82;3.08;;;11.00;54.60;;;;;;4992323;28;20473;-67
2022/02/25 03:36:30;;;;;;;9.52;3.60;;;11.00;54.60;;;;;;4992928;28;20054;-67
2022/02/25 03:38:55;;;;;;;10.15;3.45;;;11.00;54.60;;;;;;4992666;28;20458;-68
2022/02/25 03:41:21;;;;;;;10.48;3.05;;;11.00;54.80;;;;;;4975154;28;20061;-68
2022/02/25 03:43:47;;;;;;;8.35;2.83;;;10.90;54.70;;;;;;4992894;28;20054;-68
2022/02/25 03:46:13;;;;;;;7.88;2.78;;;10.90;54.90;;;;;;4992107;28;20030;-67
2022/02/25 03:48:39;;;;;;;7.93;2.95;;;10.90;55.00;;;;;;4992414;28;20038;-67
2022/02/25 03:51:05;;;;;;;7.35;2.97;;;10.90;55.10;;;;;;4974633;28;20121;-69
2022/02/25 03:53:31;;;;;;;8.98;2.88;;;11.00;55.10;;;;;;4975009;28;20121;-69
2022/02/25 03:55:56;;;;;;;6.78;2.80;;;11.10;54.90;;;;;;4992615;28;20108;-68
2022/02/25 03:58:22;;;;;;;10.20;3.30;;;11.20;54.70;;;;;;4991995;28;20088;-68
2022/02/25 04:00:47;;;;;;;8.23;2.95;;;11.30;54.60;;;;;;4992650;28;20077;-68
2022/02/25 04:03:13;;;;;;;10.73;3.20;;;11.30;54.30;;;;;;4991755;28;20026;-69
2022/02/25 04:05:39;;;;;;;14.32;3.80;;;11.40;54.10;;;;;;4992295;28;20106;-68
2022/02/25 04:08:04;;;;;;;10.68;3.38;;;11.50;54.00;;;;;;4991420;28;20065;-67
2022/02/25 04:10:33;;;;;;;13.07;2.47;;;11.50;53.90;;;;;;4992729;28;20026;-67
2022/02/25 04:12:58;;;;;;;12.02;2.10;;;11.40;52.40;;;;;;4992154;28;20041;-68
2022/02/25 04:15:24;;;;;;;5.90;2.15;;;11.20;52.30;;;;;;4991843;28;20033;-69
2022/02/25 04:17:50;;;;;;;6.35;1.90;;;11.20;52.40;;;;;;4992226;28;20026;-68
2022/02/25 04:20:15;;;;;;;2.80;1.77;;;11.20;52.30;;;;;;4991831;28;20022;-69
2022/02/25 04:22:41;;;;;;;3.92;1.73;;;11.20;52.10;;;;;;4992169;28;20470;-68
2022/02/25 04:25:08;;;;;;;4.22;1.70;;;11.20;51.90;;;;;;4991699;28;20030;-69
2022/02/25 04:27:34;;;;;;;7.38;1.70;;;11.10;51.70;;;;;;4974657;28;20465;-68
2022/02/25 04:29:59;;;;;;;6.35;1.55;;;11.10;51.70;;;;;;4992285;28;20045;-68
2022/02/25 04:32:25;;;;;;;3.72;1.30;;;11.00;51.70;;;;;;4973405;28;20049;-68
2022/02/25 04:34:51;;;;;;;6.10;1.70;;;10.90;51.90;;;;;;4992098;28;20029;-68
2022/02/25 04:37:17;;;;;;;5.63;1.30;;;10.80;52.20;;;;;;4974181;28;20438;-69
2022/02/25 04:39:42;;;;;;;4.03;1.35;;;10.70;52.80;;;;;;4992046;28;20065;-68
2022/02/25 04:42:08;;;;;;;10.13;1.20;;;10.60;53.50;;;;;;4991296;28;20026;-68
2022/02/25 04:44:34;;;;;;;6.22;1.40;;;10.70;54.90;;;;;;4992155;28;20474;-68
2022/02/25 04:46:59;;;;;;;3.13;1.40;;;10.60;54.70;;;;;;4974678;28;20030;-68
2022/02/25 04:49:25;;;;;;;4.55;1.70;;;10.50;55.50;;;;;;4991607;28;20034;-68
2022/02/25 04:51:51;;;;;;;5.22;1.80;;;10.40;56.10;;;;;;4976877;28;20061;-68
2022/02/25 04:54:16;;;;;;;3.70;1.80;;;10.40;56.40;;;;;;4995358;28;20037;-68
2022/02/25 04:56:42;;;;;;;4.95;1.88;;;10.30;57.50;;;;;;4995758;28;20034;-68
2022/02/25 04:59:08;;;;;;;3.42;2.00;;;10.30;57.60;;;;;;4978046;28;20101;-69
2022/02/25 05:01:33;;;;;;;3.70;2.15;;;10.30;58.20;;;;;;4995556;28;20385;-68
2022/02/25 05:03:59;;;;;;;4.25;1.70;;;10.20;59.40;;;;;;4995326;28;20030;-68
2022/02/25 05:06:25;;;;;;;7.70;1.60;;;10.10;61.30;;;;;;4994999;28;20507;-68
2022/02/25 05:08:53;;;;;;;2.58;1.40;;;9.70;62.80;;;;;;4995750;28;20034;-68
2022/02/25 05:11:19;;;;;;;4.43;1.35;;;9.50;64.10;;;;;;4995298;28;20435;-68
2022/02/25 05:13:45;;;;;;;3.35;1.25;;;9.30;64.60;;;;;;4995868;28;20130;-68
2022/02/25 05:21:39;;;;;;;;;;;8.90;66.30;;;;;;4995681;28;20029;-68
2022/02/25 05:24:05;;;;;;;1.55;0.90;;;8.90;66.80;;;;;;4995318;28;19906;-68
2022/02/25 05:26:30;;;;;;;2.42;1.17;;;8.80;65.90;;;;;;4977240;28;20381;-68
2022/02/25 05:28:56;;;;;;;1.50;1.00;;;8.60;66.00;;;;;;4995242;28;20034;-68
2022/02/25 05:31:22;;;;;;;2.28;1.10;;;8.40;65.70;;;;;;4994350;28;20533;-67
2022/02/25 05:33:48;;;;;;;3.47;1.08;;;8.40;65.70;;;;;;4995346;28;20026;-68
2022/02/25 05:36:16;;;;;;;3.90;1.17;;;8.30;65.40;;;;;;4994726;28;20469;-68
2022/02/25 05:38:42;;;;;;;6.13;1.27;;;8.10;65.20;;;;;;4995397;28;20109;-67
2022/02/25 05:41:08;;;;;;;5.90;1.42;;;8.10;65.20;;;;;;4995036;28;20193;-68
2022/02/25 05:43:34;;;;;;;13.32;2.03;;;8.10;64.90;;;;;;4995412;28;20026;-68
2022/02/25 05:46:00;;;;;;;10.77;2.20;;;8.20;64.70;;;;;;4977959;28;20034;-68
2022/02/25 05:48:25;;;;;;;2.42;1.10;;;8.20;64.40;;;;;;4994452;28;20034;-68
2022/02/25 05:50:51;;;;;;;5.60;1.40;;;8.10;64.30;;;;;;4977490;28;20026;-67
2022/02/25 05:53:17;;;;;;;2.45;1.10;;;8.10;64.00;;;;;;4994505;28;20073;-67
2022/02/25 05:55:42;;;;;;;2.20;1.20;;;8.10;63.90;;;;;;4995008;28;20081;-68
2022/02/25 05:58:08;;;;;;;2.92;1.00;;;8.20;63.40;;;;;;4994987;28;20036;-68
2022/02/25 06:00:35;;;;;;;5.13;1.50;;;8.10;62.80;;;;;;4994495;28;20474;-69
2022/02/25 06:03:01;;;;;;;2.60;1.10;;;8.10;62.70;;;;;;4976494;28;20069;-69
2022/02/25 06:05:27;;;;;;;7.85;1.35;;;8.20;62.80;;;;;;4993536;28;20385;-69
2022/02/25 06:07:53;;;;;;;2.70;1.15;;;8.30;62.40;;;;;;4977228;28;20092;-69
2022/02/25 06:10:19;;;;;;;10.85;2.00;;;8.40;61.80;;;;;;4994338;28;20105;-63
2022/02/25 06:12:44;;;;;;;2.63;1.55;;;8.50;61.10;;;;;;4994983;28;20057;-63
2022/02/25 06:15:11;;;;;;;2.83;1.17;;;8.60;60.80;;;;;;4976875;28;20026;-65
2022/02/25 06:17:45;;;;;;;4.00;1.00;;;8.50;60.20;;;;;;4994365;28;20031;-63
2022/02/25 06:20:11;;;;;;;;;;;8.60;60.30;;;;;;4994779;28;20116;-66
2022/02/25 06:22:37;;;;;;;3.22;1.20;;;8.60;60.40;;;;;;4994223;28;19912;-63
2022/02/25 06:25:03;;;;;;;5.30;1.20;;;8.70;59.50;;;;;;4994313;28;20026;-66
2022/02/25 06:27:28;;;;;;;4.40;1.40;;;8.60;58.80;;;;;;4993897;28;20035;-65
2022/02/25 06:29:54;;;;;;;13.05;1.50;;;8.60;58.80;;;;;;4976984;28;20058;-66
2022/02/25 06:32:20;;;;;;;9.32;1.20;;;8.40;58.60;;;;;;4963820;28;20125;-66
2022/02/25 06:34:45;;;;;;;3.22;1.23;;;8.30;59.20;;;;;;4954033;29;20474;-65
2022/02/25 06:37:11;;;;;;;8.93;1.17;;;8.30;59.20;;;;;;4955273;28;20031;-65
2022/02/25 06:39:37;;;;;;;2.70;1.00;;;8.30;59.10;;;;;;4954590;28;20086;-64
2022/02/25 06:42:03;;;;;;;4.97;1.17;;;8.30;58.80;;;;;;4955510;28;20119;-63
2022/02/25 06:44:28;;;;;;;2.45;1.23;;;8.30;58.70;;;;;;4954639;28;20445;-63
2022/02/25 06:46:54;;;;;;;4.15;1.13;;;8.40;58.60;;;;;;4970134;28;20062;-64
2022/02/25 06:49:20;;;;;;;6.07;1.13;;;8.60;58.50;;;;;;4954406;28;20035;-66
2022/02/25 06:51:45;;;;;;;4.35;1.25;;;8.80;57.90;;;;;;4953613;29;20027;-64
2022/02/25 06:54:11;;;;;;;2.72;1.52;;;8.90;56.90;;;;;;4955566;28;20355;-64
2022/02/25 06:56:37;;;;;;;4.10;1.48;;;8.90;56.90;;;;;;4953874;28;20151;-64
2022/02/25 06:59:02;;;;;;;5.75;1.63;;;8.80;57.00;;;;;;4953249;29;20035;-64
2022/02/25 07:01:28;;;;;;;6.50;1.45;;;8.80;57.00;;;;;;4953148;29;20126;-63
2022/02/25 07:03:54;;;;;;;4.20;1.38;;;8.90;56.70;;;;;;4954669;28;20106;-64
2022/02/25 07:06:24;;;;;;;6.22;1.50;;;8.90;56.70;;;;;;4954325;28;20390;-64
2022/02/25 07:08:50;;;;;;;5.43;1.60;;;8.80;57.00;;;;;;4953073;29;20039;-63
2022/02/25 07:11:17;;;;;;;3.58;1.20;;;8.90;57.00;;;;;;4952883;29;20031;-65
2022/02/25 07:13:43;;;;;;;5.65;1.50;;;9.00;56.40;;;;;;4953116;28;20118;-64
2022/02/25 07:16:09;;;;;;;8.02;1.85;;;9.00;56.30;;;;;;4953271;29;20123;-64
2022/02/25 07:18:35;;;;;;;10.02;1.77;;;9.20;55.90;;;;;;4954373;28;20047;-66
2022/02/25 07:21:01;;;;;;;5.05;1.67;;;9.20;55.90;;;;;;4954446;28;20024;-64
2022/02/25 07:23:26;;;;;;;5.97;1.60;;;9.20;55.60;;;;;;4952531;29;20027;-64
2022/02/25 07:25:52;;;;;;;9.18;1.95;;;9.30;55.40;;;;;;4954357;28;20063;-62
2022/02/25 07:28:18;;;;;;;4.85;1.63;;;9.30;55.60;;;;;;4953542;28;20393;-65
2022/02/25 07:30:43;;;;;;;3.88;1.25;;;9.50;55.20;;;;;;4954661;28;20024;-66
2022/02/25 07:33:09;;;;;;;8.43;1.48;;;9.40;55.10;;;;;;4985200;28;20058;-65
2022/02/25 07:35:35;;;;;;;6.60;1.80;;;9.40;54.80;;;;;;4992544;28;20473;-66
2022/02/25 07:38:02;;;;;;;6.03;1.83;;;9.60;55.00;;;;;;4993218;28;20026;-67
2022/02/25 07:40:28;;;;;;;5.35;2.03;;;9.70;54.10;;;;;;4974970;28;20038;-64
2022/02/25 07:42:56;;;;;;;9.52;1.90;;;9.70;54.10;;;;;;4974966;28;20022;-65
2022/02/25 07:45:22;;;;;;;6.82;1.80;;;9.70;54.40;;;;;;4974718;28;20058;-65
2022/02/25 07:47:47;;;;;;;6.15;1.92;;;9.90;54.20;;;;;;4975205;28;20069;-64
2022/02/25 07:50:14;;;;;;;5.30;1.65;;;10.00;53.80;;;;;;4975306;28;20046;-64
2022/02/25 07:52:40;;;;;;;4.80;1.70;;;9.90;53.30;;;;;;4974801;28;20088;-66
2022/02/25 07:55:08;;;;;;;6.93;1.80;;;10.10;53.40;;;;;;4992679;28;20033;-65
2022/02/25 07:57:37;;;;;;;9.82;1.88;;;10.50;52.30;;;;;;4991176;28;20092;-64
2022/02/25 08:00:09;;;;;;;5.28;2.10;;;10.70;51.60;;;;;;4975078;28;20038;-66
2022/02/25 08:02:35;;;;;;;4.95;2.50;;;10.60;51.30;;;;;;4974395;28;20041;-64
2022/02/25 08:05:20;;;;;;;8.40;1.80;;;11.40;51.20;;;;;;4975144;28;20538;-66
2022/02/25 08:07:46;;;;;;;4.57;1.98;;;11.80;49.90;;;;;;4975334;28;20026;-65
2022/02/25 08:10:12;;;;;;;5.57;1.70;;;11.90;48.90;;;;;;4975007;28;20461;-66
2022/02/25 08:12:39;;;;;;;7.90;1.50;;;11.60;48.40;;;;;;4973717;28;20030;-65
2022/02/25 08:15:05;;;;;;;6.00;2.35;;;11.30;49.40;;;;;;4992010;28;20026;-65
2022/02/25 08:17:31;;;;;;;6.32;2.05;;;11.10;49.60;;;;;;4991396;28;20030;-67
2022/02/25 08:19:57;;;;;;;6.75;1.98;;;11.80;49.00;;;;;;4992410;28;20524;-66
2022/02/25 08:22:22;;;;;;;4.40;2.03;;;12.20;48.00;;;;;;4991497;28;20069;-66
2022/02/25 08:24:50;;;;;;;5.22;2.67;;;12.50;46.80;;;;;;4991453;28;20031;-67
2022/02/25 08:27:17;;;;;;;5.32;2.80;;;13.40;45.30;;;;;;4991792;28;20038;-67
2022/02/25 08:29:43;;;;;;;4.38;1.63;;;13.80;45.50;;;;;;4991421;28;20030;-66
2022/02/25 08:32:09;;;;;;;2.05;1.50;;;13.60;43.20;;;;;;4991877;28;20046;-66
2022/02/25 08:34:35;;;;;;;3.30;1.30;;;13.20;44.50;;;;;;4991850;28;20490;-67
2022/02/25 08:37:02;;;;;;;3.25;1.73;;;12.70;44.20;;;;;;4975023;28;20054;-67
2022/02/25 08:39:28;;;;;;;5.07;1.50;;;12.30;45.10;;;;;;4974322;28;20030;-66
2022/02/25 08:41:54;;;;;;;6.47;1.98;;;12.00;45.80;;;;;;4975030;28;20077;-67
2022/02/25 08:44:21;;;;;;;3.50;1.52;;;12.00;46.20;;;;;;4992500;28;20030;-66
2022/02/25 08:46:48;;;;;;;5.32;1.95;;;12.00;45.80;;;;;;4974429;28;20031;-66
2022/02/25 08:49:14;;;;;;;9.02;2.00;;;11.70;46.40;;;;;;4992602;28;20085;-66
2022/02/25 08:51:42;;;;;;;11.88;1.77;;;11.50;46.90;;;;;;4974422;28;20034;-65
2022/02/25 08:54:10;;;;;;;6.63;1.50;;;11.40;47.10;;;;;;4991777;28;20030;-64
2022/02/25 08:56:37;;;;;;;9.25;2.10;;;11.20;47.40;;;;;;4991470;28;20023;-64
2022/02/25 08:59:03;;;;;;;4.63;1.77;;;11.00;48.00;;;;;;4974511;28;20043;-65
2022/02/25 09:01:29;;;;;;;5.75;1.90;;;10.90;48.40;;;;;;4991134;28;20520;-64
2022/02/25 09:03:55;;;;;;;3.03;1.67;;;10.90;48.90;;;;;;4991921;28;20030;-63
2022/02/25 09:06:21;;;;;;;6.40;1.90;;;10.80;48.60;;;;;;4991803;28;20165;-64
2022/02/25 09:08:46;;;;;;;5.70;1.52;;;10.70;49.10;;;;;;4991165;28;20066;-64
2022/02/25 09:11:12;;;;;;;5.90;1.90;;;10.50;49.80;;;;;;4974346;28;20432;-64
2022/02/25 09:13:40;;;;;;;3.97;1.50;;;10.40;50.20;;;;;;4974111;28;20038;-65
2022/02/25 09:16:08;;;;;;;3.80;1.92;;;10.40;50.20;;;;;;4991905;28;20062;-64
2022/02/25 09:18:33;;;;;;;3.40;1.33;;;10.50;50.10;;;;;;4974164;28;20039;-64
2022/02/25 09:21:00;;;;;;;4.80;1.45;;;10.50;49.90;;;;;;4992194;28;20037;-65
2022/02/25 09:23:26;;;;;;;6.80;2.08;;;10.50;49.80;;;;;;4991182;28;20052;-66
2022/02/25 09:25:52;;;;;;;5.35;1.70;;;10.40;49.80;;;;;;4973917;28;20116;-65
2022/02/25 09:28:18;;;;;;;6.03;1.90;;;10.40;49.90;;;;;;4973266;28;20035;-67
2022/02/25 09:30:44;;;;;;;4.60;1.73;;;10.40;49.90;;;;;;4991170;28;20283;-67
2022/02/25 09:33:10;;;;;;;9.95;1.80;;;10.50;49.90;;;;;;4991540;28;20445;-65
2022/02/25 09:35:35;;;;;;;4.30;2.20;;;10.50;49.70;;;;;;4973311;28;20034;-68
2022/02/25 09:38:01;;;;;;;6.80;1.60;;;10.40;49.90;;;;;;4993291;28;20023;-65
2022/02/25 09:40:27;;;;;;;6.63;1.80;;;10.30;50.40;;;;;;4976615;28;20039;-66
2022/02/25 09:42:54;;;;;;;7.78;1.90;;;10.50;49.70;;;;;;4976454;28;20110;-66
2022/02/25 09:45:20;;;;;;;7.13;1.98;;;10.60;48.90;;;;;;4994626;28;20038;-66
2022/02/25 09:47:46;;;;;;;2.83;1.83;;;10.60;48.90;;;;;;4976346;28;20546;-67
2022/02/25 09:50:15;;;;;;;5.75;2.10;;;10.60;48.50;;;;;;4994023;28;20030;-67
2022/02/25 09:52:42;;;;;;;4.18;1.88;;;10.50;48.80;;;;;;4976296;28;20076;-66
2022/02/25 09:55:17;;;;;;;6.53;1.60;;;10.50;48.70;;;;;;4994355;28;20057;-67
2022/02/25 09:57:43;;;;;;;4.75;2.03;;;10.50;48.30;;;;;;4976637;28;20188;-67
2022/02/25 10:00:09;;;;;;;5.10;1.60;;;10.30;48.00;;;;;;4976797;28;20221;-67
2022/02/25 10:02:47;;;;;;;5.53;1.67;;;10.30;47.30;;;;;;4994121;28;20102;-66
2022/02/25 10:05:16;;;;;;;8.80;1.40;;;10.40;46.30;;;;;;4993416;28;20038;-66
2022/02/25 10:07:42;;;;;;;8.55;1.98;;;10.30;46.30;;;;;;4994601;28;20057;-67
2022/02/25 10:10:10;;;;;;;6.97;1.63;;;10.20;47.00;;;;;;4994990;28;20132;-67
2022/02/25 10:12:37;;;;;;;6.20;1.25;;;10.40;47.00;;;;;;4993898;28;20034;-66
2022/02/25 10:15:03;;;;;;;7.78;1.90;;;10.60;46.40;;;;;;4976698;28;20481;-67
2022/02/25 10:17:29;;;;;;;4.63;1.50;;;10.70;46.50;;;;;;4975561;28;20117;-64
2022/02/25 10:20:03;;;;;;;3.03;1.55;;;10.80;46.20;;;;;;4960053;28;20066;-63
2022/02/25 10:22:35;;;;;;;8.18;2.13;;;11.00;45.80;;;;;;4992826;28;20026;-64
2022/02/25 10:25:03;;;;;;;4.88;1.75;;;11.00;45.60;;;;;;4993631;28;20067;-64
2022/02/25 10:27:37;;;;;;;4.10;1.98;;;11.00;45.00;;;;;;4976927;28;20045;-64
2022/02/25 10:30:18;;;;;;;3.95;1.92;;;11.00;44.60;;;;;;4994383;28;20105;-64
2022/02/25 10:32:55;;;;;;;3.65;1.55;;;11.00;43.90;;;;;;4994370;28;20050;-72
2022/02/25 10:35:40;;;;;;;5.65;1.95;;;11.10;44.10;;;;;;4977365;28;20521;-66
2022/02/25 10:38:09;;;;;;;4.28;2.45;;;11.00;44.30;;;;;;4993958;28;20026;-65
2022/02/25 10:40:38;;;;;;;7.45;2.22;;;10.90;43.80;;;;;;4976780;28;20034;-67
2022/02/25 10:43:26;;;;;;;5.60;1.70;;;10.90;44.10;;;;;;4994055;28;20492;-66
2022/02/25 10:45:54;;;;;;;6.10;1.80;;;11.00;44.00;;;;;;4992488;28;20503;-67
2022/02/25 10:48:38;;;;;;;6.28;2.22;;;11.10;44.40;;;;;;4975543;28;20026;-67
2022/02/25 10:51:06;;;;;;;4.60;2.33;;;11.20;44.50;;;;;;4976415;28;20031;-69
2022/02/25 10:53:41;;;;;;;3.50;1.52;;;11.20;43.70;;;;;;4976342;28;20038;-67
2022/02/25 10:56:10;;;;;;;4.13;1.52;;;11.20;43.80;;;;;;4976366;28;20030;-64
2022/02/25 10:58:45;;;;;;;3.72;1.55;;;11.30;42.40;;;;;;4994044;28;20381;-67
2022/02/25 11:01:13;;;;;;;6.85;1.90;;;11.30;42.20;;;;;;4976559;28;20030;-69
2022/02/25 11:03:40;;;;;;;4.68;2.28;;;11.20;42.20;;;;;;4976300;28;20500;-67
2022/02/25 11:06:13;;;;;;;6.20;1.48;;;11.10;41.80;;;;;;4994011;28;20465;-68
2022/02/25 11:08:39;;;;;;;5.22;1.73;;;11.10;41.50;;;;;;4993920;28;20034;-67
2022/02/25 11:11:06;;;;;;;9.10;2.40;;;11.20;41.50;;;;;;4976310;28;20033;-64
2022/02/25 11:13:32;;;;;;;4.47;1.83;;;11.30;41.00;;;;;;4976023;28;20061;-68
2022/02/25 11:16:00;;;;;;;6.07;1.75;;;11.40;40.50;;;;;;4976228;28;20023;-68
2022/02/25 11:18:26;;;;;;;4.43;1.80;;;11.50;40.20;;;;;;4976151;28;20030;-68
2022/02/25 11:20:53;;;;;;;3.78;1.85;;;11.50;39.40;;;;;;4975934;28;20026;-68
2022/02/25 11:23:23;;;;;;;5.28;2.10;;;11.40;39.30;;;;;;4976529;28;20054;-68
2022/02/25 11:25:50;;;;;;;5.95;1.73;;;11.40;39.80;;;;;;4993309;28;20076;-67
2022/02/25 11:28:17;;;;;;;5.40;1.98;;;11.50;40.40;;;;;;4991830;28;20026;-66
2022/02/25 11:31:02;;;;;;;5.55;2.00;;;11.60;39.80;;;;;;4974320;28;20177;-67
2022/02/25 11:33:28;;;;;;;3.92;1.90;;;11.50;39.00;;;;;;4991613;28;20132;-64
2022/02/25 11:35:57;;;;;;;3.00;1.77;;;11.70;38.70;;;;;;4992444;28;20035;-65
2022/02/25 11:38:28;;;;;;;2.78;1.50;;;11.50;39.50;;;;;;4974569;28;20042;-65
2022/02/25 11:41:16;;;;;;;7.38;2.03;;;11.50;38.90;;;;;;4992312;28;20026;-66
2022/02/25 11:43:57;;;;;;;11.35;3.17;;;11.60;38.80;;;;;;4991766;28;20041;-68
2022/02/25 11:46:29;;;;;;;3.10;1.60;;;11.70;37.90;;;;;;4991693;28;20034;-66
2022/02/25 11:48:56;;;;;;;5.75;1.50;;;11.60;37.70;;;;;;4974419;28;20034;-66
2022/02/25 11:51:37;;;;;;;4.35;1.77;;;11.50;37.60;;;;;;4992582;28;20027;-66
2022/02/25 11:54:46;;;;;;;10.55;1.80;;;11.70;37.50;;;;;;4973867;28;20049;-65
2022/02/25 11:57:12;;;;;;;3.25;1.90;;;11.90;37.40;;;;;;4915631;29;20115;-65
2022/02/25 11:59:37;;;;;;;26.08;2.65;;;11.90;36.40;;;;;;4931146;29;20201;-66
2022/02/25 12:02:25;;;;;;;4.57;1.50;;;12.00;36.40;;;;;;4931064;29;20059;-62
2022/02/25 12:04:54;;;;;;;4.55;1.40;;;12.10;36.10;;;;;;4932296;29;20034;-63
2022/02/25 12:07:37;;;;;;;4.38;1.50;;;12.20;35.80;;;;;;4931745;29;20062;-63
2022/02/25 12:10:12;;;;;;;9.00;2.80;;;12.30;35.90;;;;;;4931619;29;20071;-63
2022/02/25 12:12:42;;;;;;;5.25;1.50;;;12.40;35.30;;;;;;4931160;29;20034;-62
2022/02/25 12:15:30;;;;;;;4.35;1.90;;;12.20;35.20;;;;;;4931459;29;20051;-65
2022/02/25 12:17:56;;;;;;;3.40;1.50;;;12.00;36.10;;;;;;4931056;29;20036;-66
2022/02/25 12:20:26;;;;;;;2.92;1.40;;;11.90;35.90;;;;;;4931346;29;20505;-66
2022/02/25 12:22:58;;;;;;;6.15;1.77;;;12.00;36.10;;;;;;4930865;29;20031;-69
2022/02/25 12:25:47;;;;;;;3.72;1.63;;;11.90;35.50;;;;;;4915717;29;20379;-67
2022/02/25 12:28:31;;;;;;;8.60;3.05;;;11.80;36.40;;;;;;4931452;29;20057;-66
2022/02/25 12:31:11;;;;;;;4.20;1.70;;;11.80;36.00;;;;;;4931676;29;20036;-68
2022/02/25 12:33:44;;;;;;;6.18;3.40;;;11.80;36.00;;;;;;4948126;28;20072;-68
2022/02/25 12:36:21;;;;;;;4.47;1.88;;;11.90;36.00;;;;;;4974194;28;20049;-67
2022/02/25 12:38:51;;;;;;;5.55;2.05;;;12.10;35.80;;;;;;4991229;28;20052;-67
2022/02/25 12:41:18;;;;;;;6.10;1.90;;;12.30;35.90;;;;;;4990142;28;20035;-67
2022/02/25 12:44:02;;;;;;;5.47;2.10;;;12.30;35.40;;;;;;4990688;28;20038;-65
2022/02/25 12:46:40;;;;;;;9.82;3.22;;;12.40;35.00;;;;;;4973143;28;20026;-63
2022/02/25 12:49:09;;;;;;;22.13;5.35;;;12.50;35.40;;;;;;4990914;28;20035;-65
2022/02/25 12:51:36;;;;;;;7.15;1.88;;;12.60;34.40;;;;;;4990496;28;20082;-65
2022/02/25 12:54:07;;;;;;;7.40;2.50;;;12.70;32.40;;;;;;4991254;28;20043;-69
2022/02/25 12:56:36;;;;;;;17.55;3.03;;;12.70;30.40;;;;;;4972905;28;20042;-67